sensor_id;sensor_type;location;lat;lon;timestamp;pressure;altitude;pressure_sealevel;temperature;humidity
13593;BME280;6867;50.998;4.250;2023-03-03T00:01:15;102036.94;;;3.14;73.73
13593;BME280;6867;50.998;4.250;2023-03-03T00:03:42;102026.50;;;3.01;73.82
13593;BME280;6867;50.998;4.250;2023-03-03T00:06:11;102036.22;;;3.00;73.55
13593;BME280;6867;50.998;4.250;2023-03-03T00:08:39;102049.06;;;2.95;74.17
13593;BME280;6867;50.998;4.250;2023-03-03T00:11:06;102043.56;;;3.08;73.72
13593;BME280;6867;50.998;4.250;2023-03-03T00:13:40;102041.06;;;3.07;73.49
13593;BME280;6867;50.998;4.250;2023-03-03T00:16:22;102033.72;;;2.99;73.80
13593;BME280;6867;50.998;4.250;2023-03-03T00:18:50;102032.66;;;2.90;73.43
13593;BME280;6867;50.998;4.250;2023-03-03T00:21:24;102035.78;;;2.95;74.05
13593;BME280;6867;50.998;4.250;2023-03-03T00:23:54;102039.19;;;2.86;74.27
13593;BME280;6867;50.998;4.250;2023-03-03T00:26:26;102051.25;;;2.90;74.22
13593;BME280;6867;50.998;4.250;2023-03-03T00:28:56;102068.59;;;2.94;74.84
13593;BME280;6867;50.998;4.250;2023-03-03T00:31:27;102081.28;;;2.91;75.56
13593;BME280;6867;50.998;4.250;2023-03-03T00:34:18;102068.56;;;3.06;75.22
13593;BME280;6867;50.998;4.250;2023-03-03T00:36:51;102061.25;;;2.98;75.05
13593;BME280;6867;50.998;4.250;2023-03-03T00:39:26;102064.97;;;2.95;74.43
13593;BME280;6867;50.998;4.250;2023-03-03T00:41:55;102077.03;;;2.99;75.11
13593;BME280;6867;50.998;4.250;2023-03-03T00:44:38;102067.84;;;3.04;75.55
13593;BME280;6867;50.998;4.250;2023-03-03T00:47:28;102069.78;;;3.02;74.81
13593;BME280;6867;50.998;4.250;2023-03-03T00:50:27;102057.75;;;2.97;74.90
13593;BME280;6867;50.998;4.250;2023-03-03T00:53:05;102069.44;;;2.95;75.02
13593;BME280;6867;50.998;4.250;2023-03-03T00:55:33;102074.28;;;3.01;75.59
13593;BME280;6867;50.998;4.250;2023-03-03T00:58:02;102064.13;;;2.95;75.39
13593;BME280;6867;50.998;4.250;2023-03-03T01:00:30;102076.50;;;2.85;75.28
13593;BME280;6867;50.998;4.250;2023-03-03T01:02:59;102071.88;;;2.87;74.94
13593;BME280;6867;50.998;4.250;2023-03-03T01:05:27;102063.84;;;2.77;74.84
13593;BME280;6867;50.998;4.250;2023-03-03T01:07:54;102059.63;;;2.74;74.61
13593;BME280;6867;50.998;4.250;2023-03-03T01:10:20;102055.28;;;2.73;74.54
13593;BME280;6867;50.998;4.250;2023-03-03T01:12:48;102069.63;;;2.71;74.81
13593;BME280;6867;50.998;4.250;2023-03-03T01:15:15;102069.03;;;2.67;74.80
13593;BME280;6867;50.998;4.250;2023-03-03T01:17:43;102069.16;;;2.66;75.10
13593;BME280;6867;50.998;4.250;2023-03-03T01:20:12;102064.09;;;2.63;75.31
13593;BME280;6867;50.998;4.250;2023-03-03T01:22:39;102059.31;;;2.45;74.89
13593;BME280;6867;50.998;4.250;2023-03-03T01:25:07;102063.31;;;2.40;74.62
13593;BME280;6867;50.998;4.250;2023-03-03T01:27:35;102070.44;;;2.39;74.90
13593;BME280;6867;50.998;4.250;2023-03-03T01:30:02;102058.50;;;2.34;74.90
13593;BME280;6867;50.998;4.250;2023-03-03T01:32:29;102056.94;;;2.20;74.75
13593;BME280;6867;50.998;4.250;2023-03-03T01:34:57;102060.09;;;2.14;74.88
13593;BME280;6867;50.998;4.250;2023-03-03T01:37:24;102054.06;;;2.12;74.71
13593;BME280;6867;50.998;4.250;2023-03-03T01:39:51;102058.38;;;2.13;74.76
13593;BME280;6867;50.998;4.250;2023-03-03T01:42:18;102063.44;;;2.05;75.08
13593;BME280;6867;50.998;4.250;2023-03-03T01:44:45;102074.03;;;2.05;75.16
13593;BME280;6867;50.998;4.250;2023-03-03T01:47:14;102074.41;;;2.11;75.16
13593;BME280;6867;50.998;4.250;2023-03-03T01:49:44;102069.97;;;2.12;75.37
13593;BME280;6867;50.998;4.250;2023-03-03T01:52:21;102073.59;;;2.11;75.84
13593;BME280;6867;50.998;4.250;2023-03-03T01:54:55;102074.56;;;2.10;75.63
13593;BME280;6867;50.998;4.250;2023-03-03T01:57:26;102067.22;;;2.13;75.66
13593;BME280;6867;50.998;4.250;2023-03-03T01:59:56;102059.13;;;2.15;75.65
13593;BME280;6867;50.998;4.250;2023-03-03T02:02:26;102063.09;;;2.20;75.68
13593;BME280;6867;50.998;4.250;2023-03-03T02:04:54;102072.38;;;2.26;75.68
13593;BME280;6867;50.998;4.250;2023-03-03T02:07:24;102060.91;;;2.25;75.67
13593;BME280;6867;50.998;4.250;2023-03-03T02:09:56;102051.31;;;2.13;75.69
13593;BME280;6867;50.998;4.250;2023-03-03T02:12:28;102034.06;;;2.08;75.33
13593;BME280;6867;50.998;4.250;2023-03-03T02:14:57;102045.63;;;2.07;75.48
13593;BME280;6867;50.998;4.250;2023-03-03T02:17:24;102045.75;;;2.05;75.01
13593;BME280;6867;50.998;4.250;2023-03-03T02:19:57;102030.31;;;1.99;75.05
13593;BME280;6867;50.998;4.250;2023-03-03T02:22:31;102019.84;;;1.86;75.04
13593;BME280;6867;50.998;4.250;2023-03-03T02:25:02;102024.78;;;1.80;74.87
13593;BME280;6867;50.998;4.250;2023-03-03T02:27:31;102026.09;;;1.74;74.97
13593;BME280;6867;50.998;4.250;2023-03-03T02:30:09;102022.84;;;1.70;75.00
13593;BME280;6867;50.998;4.250;2023-03-03T02:32:36;102029.25;;;1.68;75.12
13593;BME280;6867;50.998;4.250;2023-03-03T02:38:17;102044.03;;;1.70;75.16
13593;BME280;6867;50.998;4.250;2023-03-03T02:40:55;102047.44;;;1.72;75.21
13593;BME280;6867;50.998;4.250;2023-03-03T02:43:30;102057.44;;;1.80;75.69
13593;BME280;6867;50.998;4.250;2023-03-03T02:45:59;102040.78;;;1.67;74.94
13593;BME280;6867;50.998;4.250;2023-03-03T02:48:26;102037.03;;;1.58;75.11
13593;BME280;6867;50.998;4.250;2023-03-03T02:50:52;102043.19;;;1.59;75.06
13593;BME280;6867;50.998;4.250;2023-03-03T02:53:19;102041.84;;;1.53;75.14
13593;BME280;6867;50.998;4.250;2023-03-03T02:55:45;102038.59;;;1.49;74.94
13593;BME280;6867;50.998;4.250;2023-03-03T02:58:12;102030.91;;;1.46;74.83
13593;BME280;6867;50.998;4.250;2023-03-03T03:00:40;102025.00;;;1.43;74.74
13593;BME280;6867;50.998;4.250;2023-03-03T03:03:07;102028.84;;;1.39;74.94
13593;BME280;6867;50.998;4.250;2023-03-03T03:05:33;102023.78;;;1.36;74.72
13593;BME280;6867;50.998;4.250;2023-03-03T03:08:00;102028.66;;;1.29;74.93
13593;BME280;6867;50.998;4.250;2023-03-03T03:10:27;102028.81;;;1.28;74.86
13593;BME280;6867;50.998;4.250;2023-03-03T03:12:53;102021.69;;;1.28;75.14
13593;BME280;6867;50.998;4.250;2023-03-03T03:15:20;102021.94;;;1.25;75.04
13593;BME280;6867;50.998;4.250;2023-03-03T03:17:48;102019.41;;;1.23;74.73
13593;BME280;6867;50.998;4.250;2023-03-03T03:20:15;102022.53;;;1.17;74.71
13593;BME280;6867;50.998;4.250;2023-03-03T03:22:43;102028.75;;;1.16;74.72
13593;BME280;6867;50.998;4.250;2023-03-03T03:25:09;102028.41;;;1.10;74.91
13593;BME280;6867;50.998;4.250;2023-03-03T03:27:36;102023.94;;;1.10;74.85
13593;BME280;6867;50.998;4.250;2023-03-03T03:30:03;102039.44;;;1.04;75.17
13593;BME280;6867;50.998;4.250;2023-03-03T03:32:30;102036.09;;;1.13;75.31
13593;BME280;6867;50.998;4.250;2023-03-03T03:34:58;102041.16;;;1.16;75.00
13593;BME280;6867;50.998;4.250;2023-03-03T03:37:25;102059.47;;;1.19;75.47
13593;BME280;6867;50.998;4.250;2023-03-03T03:39:52;102067.53;;;1.29;75.58
13593;BME280;6867;50.998;4.250;2023-03-03T03:42:19;102054.22;;;1.30;75.48
13593;BME280;6867;50.998;4.250;2023-03-03T03:44:45;102053.25;;;1.31;75.58
13593;BME280;6867;50.998;4.250;2023-03-03T03:47:12;102039.75;;;1.23;75.41
13593;BME280;6867;50.998;4.250;2023-03-03T03:49:39;102038.06;;;1.22;75.17
13593;BME280;6867;50.998;4.250;2023-03-03T03:52:07;102043.44;;;1.20;75.25
13593;BME280;6867;50.998;4.250;2023-03-03T03:54:33;102074.34;;;1.44;75.75
13593;BME280;6867;50.998;4.250;2023-03-03T03:57:00;102069.44;;;1.51;75.58
13593;BME280;6867;50.998;4.250;2023-03-03T03:59:27;102050.03;;;1.39;75.28
13593;BME280;6867;50.998;4.250;2023-03-03T04:01:54;102046.50;;;1.27;75.14
13593;BME280;6867;50.998;4.250;2023-03-03T04:04:20;102032.50;;;1.14;75.06
13593;BME280;6867;50.998;4.250;2023-03-03T04:06:47;102039.19;;;1.07;74.92
13593;BME280;6867;50.998;4.250;2023-03-03T04:09:16;102040.38;;;1.03;75.04
13593;BME280;6867;50.998;4.250;2023-03-03T04:11:42;102045.81;;;1.01;75.09
13593;BME280;6867;50.998;4.250;2023-03-03T04:14:09;102057.84;;;1.05;75.31
13593;BME280;6867;50.998;4.250;2023-03-03T04:16:36;102058.22;;;1.12;75.27
13593;BME280;6867;50.998;4.250;2023-03-03T04:19:02;102066.44;;;1.20;75.56
13593;BME280;6867;50.998;4.250;2023-03-03T04:21:29;102075.75;;;1.37;75.92
13593;BME280;6867;50.998;4.250;2023-03-03T04:23:56;102088.47;;;1.56;75.96
13593;BME280;6867;50.998;4.250;2023-03-03T04:26:24;102091.38;;;1.75;75.67
13593;BME280;6867;50.998;4.250;2023-03-03T04:28:51;102093.06;;;1.87;76.32
13593;BME280;6867;50.998;4.250;2023-03-03T04:31:18;102096.13;;;2.05;76.40
13593;BME280;6867;50.998;4.250;2023-03-03T04:33:44;102102.16;;;2.18;76.26
13593;BME280;6867;50.998;4.250;2023-03-03T04:36:11;102089.00;;;2.17;76.36
13593;BME280;6867;50.998;4.250;2023-03-03T04:38:38;102116.72;;;2.24;76.54
13593;BME280;6867;50.998;4.250;2023-03-03T04:41:04;102122.72;;;2.37;76.96
13593;BME280;6867;50.998;4.250;2023-03-03T04:43:32;102139.63;;;2.47;77.41
13593;BME280;6867;50.998;4.250;2023-03-03T04:45:59;102150.09;;;2.60;77.50
13593;BME280;6867;50.998;4.250;2023-03-03T04:48:26;102149.00;;;2.85;77.65
13593;BME280;6867;50.998;4.250;2023-03-03T04:50:53;102156.47;;;2.80;78.29
13593;BME280;6867;50.998;4.250;2023-03-03T04:53:20;102157.25;;;3.03;78.33
13593;BME280;6867;50.998;4.250;2023-03-03T04:55:49;102149.38;;;3.13;78.12
13593;BME280;6867;50.998;4.250;2023-03-03T04:58:16;102136.28;;;3.00;77.80
13593;BME280;6867;50.998;4.250;2023-03-03T05:00:44;102151.34;;;2.99;78.74
13593;BME280;6867;50.998;4.250;2023-03-03T05:03:12;102150.97;;;3.15;78.39
13593;BME280;6867;50.998;4.250;2023-03-03T05:05:39;102149.13;;;3.27;78.07
13593;BME280;6867;50.998;4.250;2023-03-03T05:08:06;102144.56;;;3.18;77.16
13593;BME280;6867;50.998;4.250;2023-03-03T05:10:33;102150.53;;;3.31;77.50
13593;BME280;6867;50.998;4.250;2023-03-03T05:12:59;102136.50;;;3.40;77.36
13593;BME280;6867;50.998;4.250;2023-03-03T05:15:26;102141.84;;;3.29;77.34
13593;BME280;6867;50.998;4.250;2023-03-03T05:17:56;102146.94;;;3.21;77.36
13593;BME280;6867;50.998;4.250;2023-03-03T05:20:23;102147.63;;;3.34;77.21
13593;BME280;6867;50.998;4.250;2023-03-03T05:22:49;102141.63;;;3.21;76.82
13593;BME280;6867;50.998;4.250;2023-03-03T05:25:16;102139.78;;;3.33;77.05
13593;BME280;6867;50.998;4.250;2023-03-03T05:27:43;102145.34;;;3.30;77.43
13593;BME280;6867;50.998;4.250;2023-03-03T05:30:11;102159.88;;;3.46;78.01
13593;BME280;6867;50.998;4.250;2023-03-03T05:32:38;102141.56;;;3.43;77.12
13593;BME280;6867;50.998;4.250;2023-03-03T05:35:06;102140.97;;;3.40;77.42
13593;BME280;6867;50.998;4.250;2023-03-03T05:37:33;102140.84;;;3.41;76.69
13593;BME280;6867;50.998;4.250;2023-03-03T05:40:00;102152.91;;;3.45;77.58
13593;BME280;6867;50.998;4.250;2023-03-03T05:42:26;102147.34;;;3.48;77.41
13593;BME280;6867;50.998;4.250;2023-03-03T05:44:53;102159.56;;;3.40;77.07
13593;BME280;6867;50.998;4.250;2023-03-03T05:47:20;102153.50;;;3.49;76.98
13593;BME280;6867;50.998;4.250;2023-03-03T05:49:46;102158.94;;;3.47;76.85
13593;BME280;6867;50.998;4.250;2023-03-03T05:52:14;102164.66;;;3.64;77.20
13593;BME280;6867;50.998;4.250;2023-03-03T05:54:41;102148.94;;;3.40;77.11
13593;BME280;6867;50.998;4.250;2023-03-03T05:57:08;102161.78;;;3.35;77.37
13593;BME280;6867;50.998;4.250;2023-03-03T05:59:34;102171.38;;;3.47;77.35
13593;BME280;6867;50.998;4.250;2023-03-03T06:02:01;102170.38;;;3.27;77.03
13593;BME280;6867;50.998;4.250;2023-03-03T06:04:28;102178.13;;;3.19;77.60
13593;BME280;6867;50.998;4.250;2023-03-03T06:06:54;102168.16;;;3.32;77.32
13593;BME280;6867;50.998;4.250;2023-03-03T06:09:22;102181.31;;;3.34;77.39
13593;BME280;6867;50.998;4.250;2023-03-03T06:11:50;102182.13;;;3.45;77.67
13593;BME280;6867;50.998;4.250;2023-03-03T06:14:18;102172.75;;;3.30;77.58
13593;BME280;6867;50.998;4.250;2023-03-03T06:16:45;102179.03;;;3.29;77.34
13593;BME280;6867;50.998;4.250;2023-03-03T06:19:12;102189.38;;;3.43;76.77
13593;BME280;6867;50.998;4.250;2023-03-03T06:21:39;102185.56;;;3.25;77.20
13593;BME280;6867;50.998;4.250;2023-03-03T06:24:07;102194.03;;;3.19;77.83
13593;BME280;6867;50.998;4.250;2023-03-03T06:26:35;102199.66;;;3.37;77.76
13593;BME280;6867;50.998;4.250;2023-03-03T06:29:02;102185.84;;;3.22;77.57
13593;BME280;6867;50.998;4.250;2023-03-03T06:31:29;102188.94;;;3.27;77.17
13593;BME280;6867;50.998;4.250;2023-03-03T06:33:56;102193.84;;;3.43;76.98
13593;BME280;6867;50.998;4.250;2023-03-03T06:36:22;102202.53;;;3.45;77.49
13593;BME280;6867;50.998;4.250;2023-03-03T06:38:49;102201.25;;;3.28;77.33
13593;BME280;6867;50.998;4.250;2023-03-03T06:41:16;102211.06;;;3.60;77.43
13593;BME280;6867;50.998;4.250;2023-03-03T06:43:44;102198.47;;;3.62;76.75
13593;BME280;6867;50.998;4.250;2023-03-03T06:46:11;102196.16;;;3.68;76.94
13593;BME280;6867;50.998;4.250;2023-03-03T06:48:37;102203.47;;;3.76;76.92
13593;BME280;6867;50.998;4.250;2023-03-03T06:51:18;102204.69;;;3.72;76.37
13593;BME280;6867;50.998;4.250;2023-03-03T06:53:46;102215.25;;;3.62;76.94
13593;BME280;6867;50.998;4.250;2023-03-03T06:56:13;102212.31;;;3.44;76.81
13593;BME280;6867;50.998;4.250;2023-03-03T06:58:40;102224.06;;;3.63;77.30
13593;BME280;6867;50.998;4.250;2023-03-03T07:01:13;102230.38;;;3.62;77.26
13593;BME280;6867;50.998;4.250;2023-03-03T07:03:41;102233.75;;;3.64;77.47
13593;BME280;6867;50.998;4.250;2023-03-03T07:06:15;102235.66;;;3.73;77.16
13593;BME280;6867;50.998;4.250;2023-03-03T07:08:44;102226.91;;;3.82;76.63
13593;BME280;6867;50.998;4.250;2023-03-03T07:11:15;102218.53;;;3.87;76.62
13593;BME280;6867;50.998;4.250;2023-03-03T07:13:46;102221.63;;;3.71;76.33
13593;BME280;6867;50.998;4.250;2023-03-03T07:16:16;102236.56;;;3.83;76.29
13593;BME280;6867;50.998;4.250;2023-03-03T07:18:47;102224.91;;;3.95;76.25
13593;BME280;6867;50.998;4.250;2023-03-03T07:21:18;102231.16;;;4.06;76.12
13593;BME280;6867;50.998;4.250;2023-03-03T07:23:47;102239.00;;;3.75;76.16
13593;BME280;6867;50.998;4.250;2023-03-03T07:26:16;102229.00;;;3.67;76.00
13593;BME280;6867;50.998;4.250;2023-03-03T07:28:46;102237.00;;;3.88;76.25
13593;BME280;6867;50.998;4.250;2023-03-03T07:31:26;102231.16;;;4.06;75.28
13593;BME280;6867;50.998;4.250;2023-03-03T07:33:54;102226.28;;;4.11;74.73
13593;BME280;6867;50.998;4.250;2023-03-03T07:36:26;102225.03;;;4.15;74.56
13593;BME280;6867;50.998;4.250;2023-03-03T07:38:55;102212.63;;;4.04;74.98
13593;BME280;6867;50.998;4.250;2023-03-03T07:41:23;102219.13;;;4.11;75.01
13593;BME280;6867;50.998;4.250;2023-03-03T07:43:51;102214.84;;;3.99;74.42
13593;BME280;6867;50.998;4.250;2023-03-03T07:46:24;102211.16;;;4.11;73.89
13593;BME280;6867;50.998;4.250;2023-03-03T07:48:52;102215.53;;;4.22;73.97
13593;BME280;6867;50.998;4.250;2023-03-03T07:51:22;102208.94;;;4.16;72.88
13593;BME280;6867;50.998;4.250;2023-03-03T07:53:50;102199.69;;;4.11;73.33
13593;BME280;6867;50.998;4.250;2023-03-03T07:56:25;102217.94;;;4.25;73.08
13593;BME280;6867;50.998;4.250;2023-03-03T07:58:53;102206.63;;;4.23;72.60
13593;BME280;6867;50.998;4.250;2023-03-03T08:01:37;102203.75;;;4.36;72.61
13593;BME280;6867;50.998;4.250;2023-03-03T08:04:20;102202.53;;;3.98;72.60
13593;BME280;6867;50.998;4.250;2023-03-03T08:06:54;102213.06;;;4.30;72.69
13593;BME280;6867;50.998;4.250;2023-03-03T08:09:30;102211.66;;;4.05;72.97
13593;BME280;6867;50.998;4.250;2023-03-03T08:12:00;102209.72;;;4.28;72.63
13593;BME280;6867;50.998;4.250;2023-03-03T08:14:29;102208.69;;;4.19;71.41
13593;BME280;6867;50.998;4.250;2023-03-03T08:16:57;102213.53;;;4.35;72.44
13593;BME280;6867;50.998;4.250;2023-03-03T08:19:24;102228.19;;;4.50;71.92
13593;BME280;6867;50.998;4.250;2023-03-03T08:21:52;102220.44;;;4.68;71.45
13593;BME280;6867;50.998;4.250;2023-03-03T08:24:24;102202.66;;;4.79;71.05
13593;BME280;6867;50.998;4.250;2023-03-03T08:26:50;102198.19;;;4.89;71.30
13593;BME280;6867;50.998;4.250;2023-03-03T08:29:17;102191.50;;;4.94;70.36
13593;BME280;6867;50.998;4.250;2023-03-03T08:31:44;102201.06;;;5.07;70.54
13593;BME280;6867;50.998;4.250;2023-03-03T08:34:12;102184.94;;;4.98;69.90
13593;BME280;6867;50.998;4.250;2023-03-03T08:36:38;102197.09;;;4.91;70.11
13593;BME280;6867;50.998;4.250;2023-03-03T08:39:05;102183.28;;;4.67;69.59
13593;BME280;6867;50.998;4.250;2023-03-03T08:41:33;102191.09;;;4.99;69.95
13593;BME280;6867;50.998;4.250;2023-03-03T08:44:00;102175.72;;;4.72;69.32
13593;BME280;6867;50.998;4.250;2023-03-03T08:46:26;102189.59;;;5.16;69.21
13593;BME280;6867;50.998;4.250;2023-03-03T08:48:53;102165.78;;;5.14;68.80
13593;BME280;6867;50.998;4.250;2023-03-03T08:51:22;102167.72;;;5.03;68.77
13593;BME280;6867;50.998;4.250;2023-03-03T08:53:49;102161.28;;;5.34;67.95
13593;BME280;6867;50.998;4.250;2023-03-03T08:56:16;102166.72;;;5.04;68.21
13593;BME280;6867;50.998;4.250;2023-03-03T08:58:43;102171.63;;;5.18;67.42
13593;BME280;6867;50.998;4.250;2023-03-03T09:01:12;102188.19;;;5.02;67.89
13593;BME280;6867;50.998;4.250;2023-03-03T09:03:39;102187.84;;;4.86;68.39
13593;BME280;6867;50.998;4.250;2023-03-03T09:06:06;102188.88;;;5.04;68.15
13593;BME280;6867;50.998;4.250;2023-03-03T09:08:34;102190.16;;;5.29;67.38
13593;BME280;6867;50.998;4.250;2023-03-03T09:11:01;102186.81;;;5.27;67.41
13593;BME280;6867;50.998;4.250;2023-03-03T09:13:29;102178.69;;;5.48;66.94
13593;BME280;6867;50.998;4.250;2023-03-03T09:15:57;102164.09;;;5.23;67.10
13593;BME280;6867;50.998;4.250;2023-03-03T09:18:30;102172.09;;;5.42;66.23
13593;BME280;6867;50.998;4.250;2023-03-03T09:20:57;102177.56;;;5.50;66.23
13593;BME280;6867;50.998;4.250;2023-03-03T09:23:34;102166.63;;;5.73;66.08
13593;BME280;6867;50.998;4.250;2023-03-03T09:26:21;102157.63;;;6.03;65.44
13593;BME280;6867;50.998;4.250;2023-03-03T09:28:51;102141.78;;;5.92;64.73
13593;BME280;6867;50.998;4.250;2023-03-03T09:31:24;102142.53;;;6.31;63.98
13593;BME280;6867;50.998;4.250;2023-03-03T09:33:51;102097.97;;;5.94;64.09
13593;BME280;6867;50.998;4.250;2023-03-03T09:36:24;102144.47;;;6.29;63.78
13593;BME280;6867;50.998;4.250;2023-03-03T09:38:53;102111.66;;;6.46;63.32
13593;BME280;6867;50.998;4.250;2023-03-03T09:47:38;102130.81;;;7.33;61.96
13593;BME280;6867;50.998;4.250;2023-03-03T09:50:21;102083.00;;;7.30;61.00
13593;BME280;6867;50.998;4.250;2023-03-03T09:52:52;102087.94;;;6.89;61.88
13593;BME280;6867;50.998;4.250;2023-03-03T09:55:33;102104.16;;;7.41;61.41
13593;BME280;6867;50.998;4.250;2023-03-03T09:58:18;102094.50;;;7.48;60.88
13593;BME280;6867;50.998;4.250;2023-03-03T10:00:54;102085.53;;;7.13;60.98
13593;BME280;6867;50.998;4.250;2023-03-03T10:03:54;102071.84;;;7.16;60.27
13593;BME280;6867;50.998;4.250;2023-03-03T10:06:28;102076.97;;;7.10;60.84
13593;BME280;6867;50.998;4.250;2023-03-03T10:09:08;102105.09;;;7.32;60.90
13593;BME280;6867;50.998;4.250;2023-03-03T10:11:46;102109.25;;;7.34;60.80
13593;BME280;6867;50.998;4.250;2023-03-03T10:14:35;102101.47;;;7.41;60.41
13593;BME280;6867;50.998;4.250;2023-03-03T10:17:21;102086.81;;;7.45;59.83
13593;BME280;6867;50.998;4.250;2023-03-03T10:20:01;102085.09;;;7.62;59.53
13593;BME280;6867;50.998;4.250;2023-03-03T10:22:35;102095.91;;;7.78;59.64
13593;BME280;6867;50.998;4.250;2023-03-03T10:25:15;102070.47;;;7.74;58.96
13593;BME280;6867;50.998;4.250;2023-03-03T10:27:56;102069.56;;;7.91;58.87
13593;BME280;6867;50.998;4.250;2023-03-03T10:30:34;102075.81;;;8.00;58.90
13593;BME280;6867;50.998;4.250;2023-03-03T10:33:11;102052.63;;;7.83;58.44
13593;BME280;6867;50.998;4.250;2023-03-03T10:35:55;102051.09;;;7.80;58.26
13593;BME280;6867;50.998;4.250;2023-03-03T10:38:31;102051.97;;;8.23;57.07
13593;BME280;6867;50.998;4.250;2023-03-03T10:41:14;102066.63;;;8.03;57.83
13593;BME280;6867;50.998;4.250;2023-03-03T10:44:07;102064.34;;;7.82;58.22
13593;BME280;6867;50.998;4.250;2023-03-03T10:46:54;102097.66;;;8.21;58.54
13593;BME280;6867;50.998;4.250;2023-03-03T10:49:34;102058.19;;;8.58;57.55
13593;BME280;6867;50.998;4.250;2023-03-03T10:52:17;102071.31;;;9.02;56.79
13593;BME280;6867;50.998;4.250;2023-03-03T10:54:55;102026.53;;;8.53;56.98
13593;BME280;6867;50.998;4.250;2023-03-03T10:57:34;102048.09;;;8.52;57.14
13593;BME280;6867;50.998;4.250;2023-03-03T11:00:15;102067.31;;;9.06;56.86
13593;BME280;6867;50.998;4.250;2023-03-03T11:02:55;102052.72;;;8.92;56.56
13593;BME280;6867;50.998;4.250;2023-03-03T11:05:34;102031.44;;;9.47;55.59
13593;BME280;6867;50.998;4.250;2023-03-03T11:08:10;102003.47;;;9.26;54.39
13593;BME280;6867;50.998;4.250;2023-03-03T11:10:50;102024.75;;;9.27;55.08
13593;BME280;6867;50.998;4.250;2023-03-03T11:13:27;101992.00;;;9.64;54.51
13593;BME280;6867;50.998;4.250;2023-03-03T11:16:14;101992.56;;;9.35;54.67
13593;BME280;6867;50.998;4.250;2023-03-03T11:18:57;101998.75;;;9.44;54.48
13593;BME280;6867;50.998;4.250;2023-03-03T11:21:30;101977.28;;;9.52;53.43
13593;BME280;6867;50.998;4.250;2023-03-03T11:24:12;102007.81;;;9.35;54.95
13593;BME280;6867;50.998;4.250;2023-03-03T11:26:52;101968.94;;;9.31;54.00
13593;BME280;6867;50.998;4.250;2023-03-03T11:29:29;102001.31;;;9.21;53.72
13593;BME280;6867;50.998;4.250;2023-03-03T11:32:08;101977.19;;;9.13;54.46
13593;BME280;6867;50.998;4.250;2023-03-03T11:34:50;101986.75;;;8.99;54.02
13593;BME280;6867;50.998;4.250;2023-03-03T11:37:23;101975.66;;;9.18;54.46
13593;BME280;6867;50.998;4.250;2023-03-03T11:39:56;102030.44;;;8.83;55.05
13593;BME280;6867;50.998;4.250;2023-03-03T11:42:34;102035.94;;;8.73;55.41
13593;BME280;6867;50.998;4.250;2023-03-03T11:45:12;102021.41;;;9.17;54.93
13593;BME280;6867;50.998;4.250;2023-03-03T11:47:44;102033.97;;;9.57;54.71
13593;BME280;6867;50.998;4.250;2023-03-03T11:50:19;102018.66;;;10.30;53.23
13593;BME280;6867;50.998;4.250;2023-03-03T11:52:50;101971.09;;;10.61;52.06
13593;BME280;6867;50.998;4.250;2023-03-03T11:55:26;101923.09;;;10.81;50.97
13593;BME280;6867;50.998;4.250;2023-03-03T11:58:00;101937.34;;;11.19;50.77
13593;BME280;6867;50.998;4.250;2023-03-03T12:00:36;101912.66;;;11.16;50.57
13593;BME280;6867;50.998;4.250;2023-03-03T12:03:18;101958.81;;;11.42;51.07
13593;BME280;6867;50.998;4.250;2023-03-03T12:05:54;101872.34;;;11.16;50.03
13593;BME280;6867;50.998;4.250;2023-03-03T12:08:40;101862.41;;;10.26;50.52
13593;BME280;6867;50.998;4.250;2023-03-03T12:11:16;101880.38;;;10.17;50.60
13593;BME280;6867;50.998;4.250;2023-03-03T12:13:53;101900.47;;;10.30;51.08
13593;BME280;6867;50.998;4.250;2023-03-03T12:16:31;101859.34;;;9.75;51.07
13593;BME280;6867;50.998;4.250;2023-03-03T12:19:14;101892.78;;;9.56;52.56
13593;BME280;6867;50.998;4.250;2023-03-03T12:22:01;101939.31;;;9.16;53.33
13593;BME280;6867;50.998;4.250;2023-03-03T12:24:43;101949.03;;;9.25;53.28
13593;BME280;6867;50.998;4.250;2023-03-03T12:27:18;101934.81;;;8.84;53.22
13593;BME280;6867;50.998;4.250;2023-03-03T12:29:57;101950.91;;;8.92;53.42
13593;BME280;6867;50.998;4.250;2023-03-03T12:32:38;101963.16;;;8.36;54.65
13593;BME280;6867;50.998;4.250;2023-03-03T12:35:16;102041.13;;;8.67;56.27
13593;BME280;6867;50.998;4.250;2023-03-03T12:37:54;102012.16;;;8.70;55.29
13593;BME280;6867;50.998;4.250;2023-03-03T12:40:25;102014.03;;;8.86;54.55
13593;BME280;6867;50.998;4.250;2023-03-03T12:43:16;102014.84;;;9.36;54.43
13593;BME280;6867;50.998;4.250;2023-03-03T12:45:54;102002.09;;;9.54;54.12
13593;BME280;6867;50.998;4.250;2023-03-03T12:48:29;101986.81;;;9.63;53.42
13593;BME280;6867;50.998;4.250;2023-03-03T12:51:09;102001.88;;;9.80;54.03
13593;BME280;6867;50.998;4.250;2023-03-03T12:54:03;101993.66;;;10.21;52.91
13593;BME280;6867;50.998;4.250;2023-03-03T12:56:37;101946.03;;;10.46;51.89
13593;BME280;6867;50.998;4.250;2023-03-03T12:59:09;101924.81;;;9.97;51.65
13593;BME280;6867;50.998;4.250;2023-03-03T13:01:51;101971.00;;;10.15;52.76
13593;BME280;6867;50.998;4.250;2023-03-03T13:04:31;101903.97;;;9.68;52.06
13593;BME280;6867;50.998;4.250;2023-03-03T13:07:04;101923.59;;;9.60;52.44
13593;BME280;6867;50.998;4.250;2023-03-03T13:09:44;101970.09;;;9.44;53.21
13593;BME280;6867;50.998;4.250;2023-03-03T13:12:29;102000.94;;;9.40;54.11
13593;BME280;6867;50.998;4.250;2023-03-03T13:15:03;101993.22;;;9.45;54.09
13593;BME280;6867;50.998;4.250;2023-03-03T13:17:35;101976.69;;;9.81;53.10
13593;BME280;6867;50.998;4.250;2023-03-03T13:20:14;101996.19;;;9.67;54.32
13593;BME280;6867;50.998;4.250;2023-03-03T13:22:50;101979.41;;;9.73;53.46
13593;BME280;6867;50.998;4.250;2023-03-03T13:28:13;102009.41;;;10.24;53.17
13593;BME280;6867;50.998;4.250;2023-03-03T13:30:47;101950.69;;;10.29;52.53
13593;BME280;6867;50.998;4.250;2023-03-03T13:33:23;101929.34;;;9.96;52.89
13593;BME280;6867;50.998;4.250;2023-03-03T13:35:53;101936.63;;;10.11;51.99
13593;BME280;6867;50.998;4.250;2023-03-03T13:38:24;101922.59;;;10.01;52.09
13593;BME280;6867;50.998;4.250;2023-03-03T13:40:59;101940.09;;;9.88;52.70
13593;BME280;6867;50.998;4.250;2023-03-03T13:43:31;101962.06;;;9.92;53.34
13593;BME280;6867;50.998;4.250;2023-03-03T13:46:05;101936.97;;;9.77;53.21